Time;durP1;ratioP1;P1;durP2;ratioP2;P2;SDS_P1;SDS_P2;PMS_P1;PMS_P2;Temp;Humidity;BMP_temperature;BMP_pressure;BME280_temperature;BME280_humidity;BME280_pressure;Samples;Min_cycle;Max_cycle;Signal;HPM_P1;HPM_P2
2022/09/07 00:00:51;;;;;;;0.00;0.00;;;;;;;20.46;70.15;101405.97;5044581;28;20033;-74
2022/09/07 00:03:17;;;;;;;1.65;1.35;;;;;;;20.38;70.31;101410.88;5043150;28;20024;-74
2022/09/07 00:05:45;;;;;;;0.13;0.13;;;;;;;20.39;69.83;101411.72;5046812;28;20502;-74
2022/09/07 00:08:13;;;;;;;0.05;0.05;;;;;;;20.36;69.98;101408.28;5044302;28;20112;-74
2022/09/07 00:10:40;;;;;;;0.10;0.10;;;;;;;20.34;70.18;101404.78;5043466;28;20395;-73
2022/09/07 00:13:09;;;;;;;0.10;0.10;;;;;;;20.28;70.26;101391.63;5045066;28;20116;-74
2022/09/07 00:15:39;;;;;;;0.20;0.20;;;;;;;20.32;70.43;101386.97;5044137;28;20120;-74
2022/09/07 00:18:05;;;;;;;0.15;0.15;;;;;;;20.27;70.34;101376.44;5048737;28;20025;-74
2022/09/07 00:20:31;;;;;;;0.00;0.00;;;;;;;20.30;70.60;101379.00;5049701;28;20059;-74
2022/09/07 00:22:57;;;;;;;0.30;0.30;;;;;;;20.36;70.26;101375.97;5050532;28;20064;-74
2022/09/07 00:25:23;;;;;;;0.08;0.08;;;;;;;20.42;69.97;101368.53;5043453;28;20103;-74
2022/09/07 00:27:49;;;;;;;0.00;0.00;;;;;;;20.43;69.70;101364.88;5041234;28;20061;-73
2022/09/07 00:30:15;;;;;;;0.20;0.20;;;;;;;20.40;69.95;101352.47;5047686;28;20040;-74
2022/09/07 00:32:42;;;;;;;0.10;0.10;;;;;;;20.41;70.55;101342.56;5045674;28;20079;-74
2022/09/07 00:35:08;;;;;;;0.10;0.10;;;;;;;20.39;70.14;101326.50;5048076;28;20029;-74
2022/09/07 00:37:34;;;;;;;0.20;0.20;;;;;;;20.40;70.03;101314.78;5045182;28;20034;-74
2022/09/07 00:40:01;;;;;;;0.10;0.10;;;;;;;20.39;69.90;101301.38;5048025;28;20108;-75
2022/09/07 00:42:27;;;;;;;0.50;0.50;;;;;;;20.39;69.61;101287.94;5045677;28;20496;-75
2022/09/07 00:45:11;;;;;;;0.45;0.45;;;;;;;20.38;69.74;101286.22;5046795;28;20032;-74
2022/09/07 00:47:45;;;;;;;0.05;0.05;;;;;;;20.25;69.95;101284.19;5048068;28;20653;-75
2022/09/07 00:50:19;;;;;;;0.08;0.08;;;;;;;20.22;69.95;101288.88;5047353;28;20040;-75
2022/09/07 00:52:50;;;;;;;0.10;0.10;;;;;;;20.19;70.18;101298.81;5045256;28;20040;-75
2022/09/07 00:55:17;;;;;;;0.60;0.60;;;;;;;20.18;69.89;101304.28;5044508;28;20048;-74
2022/09/07 00:57:48;;;;;;;0.10;0.10;;;;;;;20.25;69.90;101297.66;5045646;28;20025;-75
2022/09/07 01:00:15;;;;;;;0.10;0.10;;;;;;;20.22;70.21;101295.09;5043396;28;20025;-74
2022/09/07 01:02:41;;;;;;;0.00;0.00;;;;;;;20.22;70.15;101286.16;5045820;28;20093;-75
2022/09/07 01:05:17;;;;;;;0.00;0.00;;;;;;;20.25;69.60;101284.19;5045518;28;20033;-75
2022/09/07 01:07:44;;;;;;;0.10;0.10;;;;;;;20.22;70.01;101286.16;5049022;28;20036;-75
2022/09/07 01:10:11;;;;;;;0.10;0.10;;;;;;;20.19;69.64;101309.59;5044282;28;20037;-75
2022/09/07 01:12:37;;;;;;;0.10;0.10;;;;;;;20.22;69.37;101311.25;5047173;28;20029;-74
2022/09/07 01:15:04;;;;;;;0.10;0.10;;;;;;;20.24;69.55;101311.16;5044689;28;20494;-74
2022/09/07 01:23:27;;;;;;;0.10;0.10;;;;;;;20.28;69.62;101323.50;5047533;28;20414;-76
2022/09/07 01:28:42;;;;;;;0.10;0.10;;;;;;;20.34;69.47;101342.88;5088789;27;1216788;-74
2022/09/07 01:31:36;;;;;;;1.00;0.28;;;;;;;20.50;69.29;101339.38;5117139;28;20129;-75
2022/09/07 01:34:18;;;;;;;0.10;0.10;;;;;;;20.53;69.24;101341.91;5108634;27;20436;-74
2022/09/07 01:37:04;;;;;;;0.10;0.10;;;;;;;20.54;69.34;101343.63;5099191;28;20126;-76
2022/09/07 01:39:44;;;;;;;0.08;0.08;;;;;;;20.56;69.20;101349.81;5093915;28;20417;-76
2022/09/07 01:42:13;;;;;;;0.10;0.10;;;;;;;20.51;69.40;101347.38;5104417;28;20443;-76
2022/09/07 01:44:52;;;;;;;0.20;0.20;;;;;;;20.54;69.30;101357.09;5101068;28;20118;-76
2022/09/07 01:47:30;;;;;;;0.00;0.00;;;;;;;20.58;69.48;101353.28;5103975;28;20077;-76
2022/09/07 01:50:07;;;;;;;0.10;0.10;;;;;;;20.56;69.63;101344.44;5097418;28;20020;-76
2022/09/07 01:55:17;;;;;;;0.10;0.10;;;;;;;20.58;69.70;101347.91;5038129;28;20053;-75
2022/09/07 01:58:08;;;;;;;0.10;0.10;;;;;;;20.71;69.02;101341.84;5029575;28;20034;-74
2022/09/07 02:00:37;;;;;;;0.10;0.10;;;;;;;20.65;69.00;101338.53;5021444;28;20038;-77
2022/09/07 02:03:12;;;;;;;0.10;0.10;;;;;;;20.68;68.84;101322.19;5015941;28;20480;-75
2022/09/07 02:05:48;;;;;;;0.10;0.10;;;;;;;20.68;69.00;101330.28;4998939;28;20069;-76
2022/09/07 02:08:25;;;;;;;0.10;0.10;;;;;;;20.68;68.86;101338.34;4999026;28;20574;-77
2022/09/07 02:10:59;;;;;;;0.10;0.10;;;;;;;20.65;68.56;101341.22;5008483;28;20107;-76
2022/09/07 02:16:26;;;;;;;0.10;0.10;;;;;;;20.69;68.88;101347.31;5039968;28;20416;-74
2022/09/07 02:18:58;;;;;;;0.00;0.00;;;;;;;20.69;68.76;101326.63;5029291;28;20088;-76
2022/09/07 02:21:38;;;;;;;0.13;0.13;;;;;;;20.73;68.58;101327.38;5038169;28;20043;-76
2022/09/07 02:24:09;;;;;;;0.10;0.10;;;;;;;20.66;68.83;101332.22;5030580;28;20026;-76
2022/09/07 02:26:40;;;;;;;0.17;0.17;;;;;;;20.66;68.83;101328.63;5035778;28;20037;-76
2022/09/07 02:29:06;;;;;;;0.10;0.10;;;;;;;20.58;68.84;101326.38;5035454;28;20038;-75
2022/09/07 02:31:33;;;;;;;0.10;0.10;;;;;;;20.58;68.77;101325.50;5023635;28;20649;-76
2022/09/07 02:34:00;;;;;;;0.10;0.10;;;;;;;20.58;68.58;101334.44;5032274;28;20499;-76
2022/09/07 02:36:31;;;;;;;0.10;0.10;;;;;;;20.63;68.76;101342.28;5035501;28;20125;-76
2022/09/07 02:38:58;;;;;;;0.30;0.30;;;;;;;20.60;68.78;101332.53;5029429;28;20075;-76
2022/09/07 02:41:35;;;;;;;0.10;0.10;;;;;;;20.66;68.78;101339.41;5030524;28;20037;-76
2022/09/07 02:44:06;;;;;;;0.10;0.10;;;;;;;20.63;68.53;101343.13;5026560;28;20033;-77
2022/09/07 02:49:53;;;;;;;0.00;0.00;;;;;;;20.73;68.50;101339.97;5062898;28;20776;-74
2022/09/07 02:52:36;;;;;;;0.00;0.00;;;;;;;20.72;68.71;101346.31;5040934;28;20049;-74
2022/09/07 02:58:05;;;;;;;0.00;0.00;;;;;;;20.72;68.72;101335.53;5027540;28;20594;-76
2022/09/07 03:00:38;;;;;;;0.10;0.10;;;;;;;20.63;68.48;101329.66;5013498;28;20033;-76
2022/09/07 03:03:19;;;;;;;0.10;0.10;;;;;;;20.59;68.62;101338.88;5015079;28;20026;-76
2022/09/07 03:05:52;;;;;;;0.10;0.10;;;;;;;20.53;68.84;101329.28;5008966;28;20026;-76
2022/09/07 03:08:33;;;;;;;0.10;0.10;;;;;;;20.57;68.56;101324.63;5008811;28;20030;-76
2022/09/07 03:11:00;;;;;;;0.10;0.10;;;;;;;20.54;68.46;101332.88;5010718;28;20033;-76
2022/09/07 03:13:28;;;;;;;0.10;0.10;;;;;;;20.52;68.50;101324.00;5012990;28;20041;-76
2022/09/07 03:15:55;;;;;;;0.03;0.03;;;;;;;20.49;68.32;101319.66;5009127;28;20029;-77
2022/09/07 03:18:21;;;;;;;0.10;0.10;;;;;;;20.46;68.24;101316.25;5011179;28;20096;-76
2022/09/07 03:20:48;;;;;;;0.10;0.10;;;;;;;20.42;68.21;101315.56;5010902;28;20069;-76
2022/09/07 03:23:14;;;;;;;0.10;0.10;;;;;;;20.35;68.33;101309.66;5012609;28;20049;-75
2022/09/07 03:25:40;;;;;;;0.17;0.17;;;;;;;20.27;68.18;101298.41;5010987;28;20030;-75
2022/09/07 03:28:07;;;;;;;0.10;0.10;;;;;;;20.26;68.00;101294.00;5013131;28;20117;-75
2022/09/07 03:30:33;;;;;;;0.00;0.00;;;;;;;20.22;68.04;101307.69;5005338;28;20495;-75
2022/09/07 03:33:00;;;;;;;0.10;0.10;;;;;;;20.18;67.93;101304.28;5009350;28;20034;-75
2022/09/07 03:35:26;;;;;;;0.10;0.10;;;;;;;20.13;67.89;101307.22;5014025;28;20026;-75
2022/09/07 03:37:52;;;;;;;0.10;0.10;;;;;;;20.09;67.93;101302.06;5004900;28;20041;-73
2022/09/07 03:40:18;;;;;;;0.10;0.10;;;;;;;20.03;67.89;101293.38;5011581;28;20034;-74
2022/09/07 03:42:49;;;;;;;0.10;0.10;;;;;;;20.00;67.79;101277.41;5009577;28;20029;-75
2022/09/07 03:45:15;;;;;;;0.10;0.10;;;;;;;19.94;67.70;101285.81;5007419;28;20054;-74
2022/09/07 03:47:41;;;;;;;0.10;0.10;;;;;;;19.89;67.80;101285.19;5006238;28;20037;-74
2022/09/07 03:50:08;;;;;;;0.10;0.10;;;;;;;19.85;67.60;101286.28;5007007;28;20526;-74
2022/09/07 03:52:35;;;;;;;0.10;0.10;;;;;;;19.81;67.80;101290.94;5007189;28;20042;-75
2022/09/07 03:55:02;;;;;;;0.10;0.10;;;;;;;19.79;67.90;101294.63;5010722;28;20041;-75
2022/09/07 03:57:28;;;;;;;0.00;0.00;;;;;;;19.78;67.77;101303.66;5011870;28;20025;-75
2022/09/07 03:59:54;;;;;;;0.00;0.00;;;;;;;19.76;67.84;101306.41;5015409;28;20033;-75
2022/09/07 04:02:20;;;;;;;0.10;0.10;;;;;;;19.69;67.74;101305.88;5017116;28;20034;-75
2022/09/07 04:04:46;;;;;;;0.10;0.10;;;;;;;19.69;67.69;101311.25;5015354;28;20076;-74
2022/09/07 04:07:13;;;;;;;0.10;0.10;;;;;;;19.68;67.84;101309.50;4998661;28;20109;-74
2022/09/07 04:09:39;;;;;;;0.10;0.10;;;;;;;19.64;67.49;101307.94;4997342;28;20041;-74
2022/09/07 04:12:06;;;;;;;0.10;0.10;;;;;;;19.63;67.61;101316.94;4989174;28;20042;-74
2022/09/07 04:14:32;;;;;;;0.10;0.10;;;;;;;19.61;67.54;101305.38;4985070;28;20113;-74
2022/09/07 04:16:58;;;;;;;0.10;0.10;;;;;;;19.59;67.79;101312.66;4991446;28;20072;-74
2022/09/07 04:19:24;;;;;;;0.10;0.10;;;;;;;19.58;67.92;101307.34;5002496;28;20077;-74
2022/09/07 04:21:50;;;;;;;0.70;0.55;;;;;;;19.54;67.79;101317.41;4995374;28;20121;-74
2022/09/07 04:24:17;;;;;;;0.10;0.10;;;;;;;19.50;67.72;101318.50;4998559;28;20411;-75
2022/09/07 04:26:44;;;;;;;0.00;0.00;;;;;;;19.47;67.88;101318.66;5000426;28;20042;-75
2022/09/07 04:29:11;;;;;;;0.10;0.10;;;;;;;19.43;67.96;101320.63;4996519;28;20103;-75
2022/09/07 04:31:38;;;;;;;0.10;0.10;;;;;;;19.38;68.10;101318.16;4997872;28;20038;-74
2022/09/07 04:34:05;;;;;;;0.10;0.10;;;;;;;19.37;68.13;101307.50;4999820;28;20104;-74
2022/09/07 04:36:32;;;;;;;0.10;0.10;;;;;;;19.35;68.33;101299.53;5000880;28;20424;-75
2022/09/07 04:39:02;;;;;;;0.10;0.10;;;;;;;19.36;68.06;101292.31;4992469;28;20037;-74
2022/09/07 04:41:30;;;;;;;0.20;0.20;;;;;;;19.34;68.08;101294.19;4988748;28;20513;-74
2022/09/07 04:43:58;;;;;;;0.10;0.10;;;;;;;19.31;68.07;101295.22;4997109;28;20102;-75
2022/09/07 04:46:28;;;;;;;0.10;0.10;;;;;;;19.30;67.94;101304.25;4991529;28;20031;-74
2022/09/07 04:48:57;;;;;;;0.10;0.10;;;;;;;19.32;67.78;101304.16;4997687;28;20061;-74
2022/09/07 04:51:26;;;;;;;0.10;0.10;;;;;;;19.32;67.95;101296.09;4998488;28;20057;-74
2022/09/07 04:53:55;;;;;;;0.10;0.10;;;;;;;19.33;67.91;101304.09;4994770;28;20121;-74
2022/09/07 04:56:21;;;;;;;0.10;0.10;;;;;;;19.31;67.95;101305.97;4991486;28;20065;-75
2022/09/07 04:58:49;;;;;;;0.08;0.08;;;;;;;19.28;68.21;101300.75;4996893;28;20053;-74
2022/09/07 05:01:18;;;;;;;0.10;0.10;;;;;;;19.28;68.08;101290.00;4984220;28;20050;-74
2022/09/07 05:03:45;;;;;;;0.10;0.10;;;;;;;19.26;67.97;101291.91;4994386;28;20496;-74
2022/09/07 05:06:12;;;;;;;0.00;0.00;;;;;;;19.22;67.99;101285.81;4994934;28;20068;-73
2022/09/07 05:08:41;;;;;;;0.10;0.10;;;;;;;19.22;68.16;101290.31;4995551;28;20026;-74
2022/09/07 05:11:08;;;;;;;0.10;0.10;;;;;;;19.19;68.15;101285.97;4991598;28;20021;-74
2022/09/07 05:13:35;;;;;;;0.20;0.20;;;;;;;19.19;68.35;101290.44;4995949;28;20041;-74
2022/09/07 05:16:08;;;;;;;0.10;0.10;;;;;;;19.25;68.64;101290.16;4988421;28;20117;-74
2022/09/07 05:18:34;;;;;;;0.10;0.10;;;;;;;19.16;68.64;101290.63;5000177;28;20556;-74
2022/09/07 05:21:11;;;;;;;0.22;0.22;;;;;;;19.17;68.61;101292.38;4993575;28;20042;-74
2022/09/07 05:23:37;;;;;;;0.10;0.10;;;;;;;19.17;68.48;101292.38;4999854;28;20046;-74
2022/09/07 05:26:05;;;;;;;0.10;0.10;;;;;;;19.19;68.23;101279.72;5000539;28;20432;-75
2022/09/07 05:28:33;;;;;;;0.10;0.10;;;;;;;19.21;68.44;101292.13;4994245;28;20650;-75
2022/09/07 05:31:05;;;;;;;0.10;0.10;;;;;;;19.25;68.47;101282.09;4997300;28;20696;-75
2022/09/07 05:33:31;;;;;;;;;;;;;;;19.38;67.91;101291.28;4998010;28;20045;-75
2022/09/07 05:35:58;;;;;;;0.10;0.10;;;;;;;19.27;68.23;101290.97;4991685;28;20044;-77
2022/09/07 05:38:24;;;;;;;0.10;0.10;;;;;;;19.23;68.38;101294.75;4995902;28;20039;-75
2022/09/07 05:40:51;;;;;;;0.10;0.10;;;;;;;19.22;68.29;101296.53;4993230;28;20606;-74
2022/09/07 05:43:17;;;;;;;0.10;0.10;;;;;;;19.22;68.52;101304.59;4988150;28;20030;-74
2022/09/07 05:45:43;;;;;;;0.10;0.10;;;;;;;19.24;68.42;101304.56;4986055;28;20127;-76
2022/09/07 05:48:09;;;;;;;0.10;0.10;;;;;;;19.27;68.53;101317.81;4998528;28;20634;-74
2022/09/07 05:50:35;;;;;;;0.10;0.10;;;;;;;19.23;68.34;101324.28;4988850;28;20651;-75
2022/09/07 05:53:02;;;;;;;0.00;0.00;;;;;;;19.23;68.39;101317.09;4989439;28;20030;-74
2022/09/07 05:55:30;;;;;;;0.10;0.10;;;;;;;19.24;68.56;101318.00;4993321;28;20508;-74
2022/09/07 05:57:56;;;;;;;0.10;0.10;;;;;;;19.26;68.43;101323.28;4993562;28;20108;-74
2022/09/07 06:00:23;;;;;;;0.10;0.10;;;;;;;19.28;68.43;101324.94;4992455;28;20042;-74
2022/09/07 06:02:49;;;;;;;0.03;0.03;;;;;;;19.30;68.50;101328.44;4989193;28;20040;-74
2022/09/07 06:05:15;;;;;;;0.10;0.10;;;;;;;19.27;68.40;101325.03;4992232;28;20040;-75
2022/09/07 06:07:41;;;;;;;0.10;0.10;;;;;;;19.27;68.53;101317.81;4993129;28;20105;-75
2022/09/07 06:10:08;;;;;;;0.10;0.10;;;;;;;19.28;68.61;101316.88;4989934;28;20096;-75
2022/09/07 06:12:34;;;;;;;0.03;0.03;;;;;;;19.31;68.63;101326.59;5002022;28;20030;-75
2022/09/07 06:15:00;;;;;;;0.20;0.20;;;;;;;19.33;68.90;101325.56;4990670;28;20030;-75
2022/09/07 06:17:29;;;;;;;0.10;0.10;;;;;;;19.36;68.87;101324.56;4996137;28;20100;-75
2022/09/07 06:19:56;;;;;;;0.10;0.10;;;;;;;19.37;68.74;101326.31;4998314;28;20534;-75
2022/09/07 06:22:22;;;;;;;0.10;0.10;;;;;;;19.38;68.83;101334.28;4994469;28;20033;-75
2022/09/07 06:24:48;;;;;;;0.05;0.05;;;;;;;19.44;68.84;101337.59;4993649;28;20188;-75
2022/09/07 06:27:15;;;;;;;0.10;0.10;;;;;;;19.51;68.55;101334.53;4988255;28;20124;-77
2022/09/07 06:29:41;;;;;;;0.10;0.10;;;;;;;19.54;68.65;101334.41;4991200;28;20050;-75
2022/09/07 06:32:07;;;;;;;0.10;0.10;;;;;;;19.54;69.11;101344.28;4998493;28;20105;-75
2022/09/07 06:34:33;;;;;;;0.10;0.10;;;;;;;19.57;69.38;101341.44;5002646;28;20470;-76
2022/09/07 06:36:59;;;;;;;0.10;0.10;;;;;;;19.66;69.37;101338.25;4986227;28;20030;-76
2022/09/07 06:39:25;;;;;;;0.10;0.10;;;;;;;19.72;69.55;101340.66;4995274;28;20109;-76
2022/09/07 06:41:51;;;;;;;0.10;0.10;;;;;;;19.79;69.69;101345.72;4997745;28;20500;-77
2022/09/07 06:44:17;;;;;;;0.20;0.20;;;;;;;19.84;69.91;101354.47;4998104;28;20051;-77
2022/09/07 06:46:43;;;;;;;0.35;0.35;;;;;;;19.89;69.59;101347.03;4986725;28;20022;-75
2022/09/07 06:49:10;;;;;;;0.10;0.10;;;;;;;19.98;69.62;101343.88;4997832;28;20172;-76
2022/09/07 06:51:36;;;;;;;0.20;0.20;;;;;;;20.04;69.78;101340.84;4989373;28;20408;-77
2022/09/07 06:54:04;;;;;;;0.25;0.25;;;;;;;20.11;69.64;101337.84;5000695;28;20025;-76
2022/09/07 06:56:30;;;;;;;0.20;0.20;;;;;;;20.10;69.65;101346.88;4993963;28;20416;-76
2022/09/07 06:58:57;;;;;;;0.68;0.32;;;;;;;20.10;69.47;101349.56;4990332;28;20116;-75
2022/09/07 07:01:25;;;;;;;0.10;0.10;;;;;;;20.09;69.54;101351.38;4997818;28;20037;-77
2022/09/07 07:03:52;;;;;;;0.17;0.17;;;;;;;20.08;69.62;101355.00;5004698;28;20048;-77
2022/09/07 07:06:19;;;;;;;1.60;1.27;;;;;;;20.15;69.78;101363.63;5002185;28;20208;-75
2022/09/07 07:08:46;;;;;;;0.57;0.57;;;;;;;20.22;69.50;101356.13;4999369;28;20547;-76
2022/09/07 07:11:14;;;;;;;0.20;0.20;;;;;;;20.30;69.53;101370.03;4995643;28;20114;-77
2022/09/07 07:13:42;;;;;;;0.38;0.38;;;;;;;20.35;69.64;101373.38;4998246;28;20049;-77
2022/09/07 07:16:11;;;;;;;0.10;0.10;;;;;;;20.42;69.49;101369.38;5000163;28;20093;-77
2022/09/07 07:18:37;;;;;;;0.50;0.50;;;;;;;20.46;69.74;101370.09;4995236;28;20044;-77
2022/09/07 07:21:06;;;;;;;0.10;0.10;;;;;;;20.55;69.36;101369.63;4998127;28;20034;-77
2022/09/07 07:23:33;;;;;;;0.40;0.28;;;;;;;20.62;69.33;101375.53;4995475;28;20137;-77
2022/09/07 07:26:04;;;;;;;2.40;1.00;;;;;;;20.76;69.33;101377.50;4997734;28;20085;-77
2022/09/07 07:28:31;;;;;;;0.20;0.20;;;;;;;20.81;68.93;101370.03;4997577;28;20034;-76
2022/09/07 07:30:59;;;;;;;3.50;0.93;;;;;;;20.81;68.53;101376.31;4995807;28;20049;-77
2022/09/07 07:33:30;;;;;;;0.10;0.10;;;;;;;20.92;68.33;101367.66;5000969;28;20400;-78
2022/09/07 07:36:22;;;;;;;0.10;0.10;;;;;;;20.94;67.69;101365.72;5004653;28;20022;-78
2022/09/07 07:38:50;;;;;;;0.68;0.68;;;;;;;20.86;68.18;101357.22;5006709;28;20102;-77
2022/09/07 07:41:18;;;;;;;0.22;0.22;;;;;;;20.92;68.35;101367.66;5001179;28;20038;-78
2022/09/07 07:43:45;;;;;;;0.35;0.35;;;;;;;20.93;68.28;101371.19;5001591;28;20120;-78
2022/09/07 07:46:14;;;;;;;4.20;0.55;;;;;;;20.89;68.03;101373.19;5001368;28;20081;-78
2022/09/07 07:48:40;;;;;;;0.40;0.40;;;;;;;20.89;67.96;101383.09;5009506;28;20033;-77
2022/09/07 07:51:10;;;;;;;0.20;0.20;;;;;;;20.89;67.42;101378.56;5001703;28;20041;-77
2022/09/07 07:53:37;;;;;;;0.32;0.32;;;;;;;20.94;67.90;101381.03;5011340;28;20416;-78
2022/09/07 07:56:05;;;;;;;0.68;0.68;;;;;;;21.05;68.02;101389.38;5004799;28;20073;-78
2022/09/07 07:58:33;;;;;;;0.30;0.30;;;;;;;21.10;67.81;101391.81;5011572;28;20037;-77
2022/09/07 08:01:02;;;;;;;0.85;0.85;;;;;;;21.19;67.46;101391.28;5005559;28;20528;-77
2022/09/07 08:03:32;;;;;;;0.30;0.30;;;;;;;21.19;66.99;101385.91;5010030;28;20116;-78
2022/09/07 08:06:06;;;;;;;0.10;0.10;;;;;;;21.27;67.05;101389.03;5013308;28;20454;-78
2022/09/07 08:08:34;;;;;;;0.17;0.17;;;;;;;21.18;67.23;101378.75;5003115;28;20439;-78
2022/09/07 08:11:07;;;;;;;0.25;0.25;;;;;;;21.20;66.75;101374.16;4999659;28;20033;-77
2022/09/07 08:13:33;;;;;;;0.82;0.82;;;;;;;21.17;66.68;101374.31;5003592;28;20037;-77
2022/09/07 08:16:00;;;;;;;0.20;0.20;;;;;;;21.15;66.56;101381.66;5002852;28;20022;-77
2022/09/07 08:18:27;;;;;;;2.15;1.45;;;;;;;21.16;66.75;101383.41;4997522;28;20488;-77
2022/09/07 08:20:58;;;;;;;0.32;0.32;;;;;;;21.16;66.93;101375.31;5001963;28;20079;-77
2022/09/07 08:23:24;;;;;;;0.60;0.60;;;;;;;21.26;66.83;101379.22;5000013;28;20500;-76
2022/09/07 08:25:52;;;;;;;0.47;0.47;;;;;;;21.26;67.17;101371.13;5003207;28;20636;-77
2022/09/07 08:28:20;;;;;;;0.63;0.63;;;;;;;21.27;66.81;101371.97;5008597;28;20026;-76
2022/09/07 08:30:46;;;;;;;5.00;0.65;;;;;;;21.32;66.51;101373.47;4994510;28;20400;-76
2022/09/07 08:33:12;;;;;;;0.60;0.60;;;;;;;21.37;66.29;101372.34;5007590;28;20026;-76
2022/09/07 08:35:38;;;;;;;0.35;0.35;;;;;;;21.43;66.46;101371.97;5002374;28;20030;-77
2022/09/07 08:38:05;;;;;;;0.10;0.10;;;;;;;21.45;66.04;101365.53;5003788;28;20030;-77
2022/09/07 08:40:34;;;;;;;0.90;0.90;;;;;;;21.69;65.89;101373.19;4995282;28;20030;-77
2022/09/07 08:43:17;;;;;;;0.20;0.20;;;;;;;21.81;66.29;101377.00;4990083;28;20109;-76
2022/09/07 08:45:50;;;;;;;2.15;0.77;;;;;;;21.91;65.75;101370.09;4998247;28;20109;-77
2022/09/07 08:48:22;;;;;;;0.45;0.45;;;;;;;21.91;65.62;101375.50;5001282;28;20392;-76
2022/09/07 08:50:58;;;;;;;0.50;0.50;;;;;;;22.12;65.42;101365.25;5005243;28;20030;-76
2022/09/07 08:53:25;;;;;;;0.47;0.47;;;;;;;22.10;65.34;101366.31;4999494;28;20360;-75
2022/09/07 08:56:03;;;;;;;0.80;0.80;;;;;;;22.20;63.96;101361.22;4995586;28;20042;-77
2022/09/07 08:58:48;;;;;;;0.13;0.13;;;;;;;22.32;64.16;101360.47;4999843;28;20030;-77
2022/09/07 09:03:52;;;;;;;0.10;0.10;;;;;;;22.43;64.36;101357.13;5094996;27;20385;-75
2022/09/07 09:11:48;;;;;;;0.40;0.40;;;;;;;22.58;62.32;101367.00;5083830;27;20333;-76
2022/09/07 09:14:25;;;;;;;9.07;1.65;;;;;;;22.62;62.45;101362.25;5084962;28;20045;-76
2022/09/07 09:16:57;;;;;;;0.17;0.17;;;;;;;22.71;62.67;101358.97;5083532;28;20095;-76
2022/09/07 09:22:16;;;;;;;0.10;0.10;;;;;;;22.92;61.61;101364.00;5096518;27;20381;-75
2022/09/07 09:24:50;;;;;;;0.10;0.10;;;;;;;22.99;61.47;101364.44;5085116;28;20039;-75
2022/09/07 09:27:16;;;;;;;0.45;0.45;;;;;;;23.06;61.57;101365.78;5086339;28;20032;-74
2022/09/07 09:29:42;;;;;;;0.32;0.32;;;;;;;23.03;61.46;101372.28;5087325;28;20039;-75
2022/09/07 09:32:31;;;;;;;0.30;0.30;;;;;;;23.27;60.01;101375.22;5086857;28;20024;-74
2022/09/07 09:35:15;;;;;;;0.15;0.15;;;;;;;23.34;59.43;101377.53;5087228;28;20031;-74
2022/09/07 09:37:42;;;;;;;0.20;0.20;;;;;;;23.30;59.36;101368.75;5085444;28;20028;-74
2022/09/07 09:43:15;;;;;;;0.10;0.10;;;;;;;23.53;58.51;101363.69;5057350;28;20742;-75
2022/09/07 09:45:45;;;;;;;0.10;0.10;;;;;;;23.67;58.40;101360.06;5053429;28;20040;-74
2022/09/07 09:48:19;;;;;;;0.10;0.10;;;;;;;23.80;58.21;101355.56;5055026;28;20025;-79
2022/09/07 09:50:51;;;;;;;0.08;0.08;;;;;;;23.85;58.02;101350.69;5052181;28;20113;-75
2022/09/07 09:56:03;;;;;;;5.07;1.20;;;;;;;23.96;57.48;101349.09;5089698;27;1198669;-75
2022/09/07 09:58:33;;;;;;;0.10;0.10;;;;;;;24.08;57.06;101342.84;5126276;28;20023;-75
2022/09/07 10:01:03;;;;;;;0.10;0.10;;;;;;;24.34;57.59;101357.28;5121066;27;20024;-75
2022/09/07 10:03:31;;;;;;;0.60;0.60;;;;;;;24.39;56.56;101354.25;5123295;27;20024;-76
2022/09/07 10:06:01;;;;;;;0.10;0.10;;;;;;;24.50;55.93;101354.34;5112734;28;20023;-77
2022/09/07 10:08:29;;;;;;;0.10;0.10;;;;;;;24.53;55.09;101354.13;5118622;28;20076;-76
2022/09/07 10:11:06;;;;;;;0.10;0.10;;;;;;;24.77;54.52;101350.66;5116970;28;20052;-76
2022/09/07 10:13:37;;;;;;;0.30;0.30;;;;;;;24.54;53.67;101346.88;5114367;27;20020;-77
2022/09/07 10:16:06;;;;;;;0.80;0.80;;;;;;;24.58;52.10;101355.66;5116224;28;20552;-76
2022/09/07 10:18:39;;;;;;;0.22;0.22;;;;;;;24.63;51.74;101353.47;5112487;28;20043;-76
2022/09/07 10:26:47;;;;;;;0.20;0.20;;;;;;;24.80;51.64;101338.72;5102194;27;20394;-75
2022/09/07 10:29:22;;;;;;;0.28;0.28;;;;;;;24.84;52.78;101332.97;5087334;28;20028;-79
2022/09/07 10:37:48;;;;;;;0.40;0.40;;;;;;;24.99;50.39;101343.69;5113284;27;20401;-76
2022/09/07 10:49:13;;;;;;;2.00;1.50;;;;;;;24.64;50.62;101344.38;5145094;27;20346;-85
2022/09/07 10:57:40;;;;;;;1.65;1.55;;;;;;;24.76;51.20;101338.13;5113446;27;20477;-77
2022/09/07 11:06:16;;;;;;;0.10;0.10;;;;;;;25.22;50.55;101327.56;5064198;28;20399;-79
2022/09/07 11:14:10;;;;;;;0.10;0.10;;;;;;;25.98;49.42;101330.88;5064128;28;20400;-77
2022/09/07 11:16:45;;;;;;;0.10;0.10;;;;;;;26.15;48.91;101322.28;5039880;28;20434;-79
2022/09/07 11:19:16;;;;;;;0.10;0.10;;;;;;;26.27;46.54;101331.34;5049471;28;20096;-79
2022/09/07 11:21:52;;;;;;;0.10;0.10;;;;;;;26.32;46.34;101329.13;5047207;28;20060;-79
2022/09/07 11:24:31;;;;;;;0.08;0.08;;;;;;;26.42;46.95;101323.81;5048988;28;20025;-79
2022/09/07 11:27:06;;;;;;;0.05;0.05;;;;;;;26.29;45.34;101323.94;5042176;28;20045;-78
2022/09/07 11:29:51;;;;;;;0.35;0.35;;;;;;;26.35;45.20;101328.00;5050965;28;20025;-79
2022/09/07 11:32:23;;;;;;;0.20;0.20;;;;;;;26.32;46.24;101326.41;5049334;28;20081;-79
2022/09/07 11:34:52;;;;;;;;;;;;;;;26.45;46.14;101318.13;5041850;28;20037;-79
2022/09/07 11:40:20;;;;;;;0.10;0.10;;;;;;;26.46;44.51;101328.00;5100859;27;1234531;-77
2022/09/07 11:42:58;;;;;;;0.00;0.00;;;;;;;26.58;45.37;101323.47;5125579;28;20100;-78
2022/09/07 11:45:45;;;;;;;0.10;0.10;;;;;;;26.69;44.24;101319.00;5115781;28;20028;-77
2022/09/07 11:48:24;;;;;;;0.10;0.10;;;;;;;26.76;44.84;101321.13;5114022;28;20036;-78
2022/09/07 11:50:57;;;;;;;0.10;0.10;;;;;;;26.68;41.93;101317.25;5107452;28;20054;-78
2022/09/07 11:53:29;;;;;;;0.10;0.10;;;;;;;26.82;42.79;101313.44;5108846;28;20085;-78
2022/09/07 11:56:10;;;;;;;0.10;0.10;;;;;;;26.82;42.52;101316.16;5107310;28;20119;-78
2022/09/07 12:04:56;;;;;;;0.05;0.05;;;;;;;27.16;41.88;101305.25;5119500;27;20905;-76
2022/09/07 12:10:30;;;;;;;0.10;0.10;;;;;;;27.32;41.44;101299.41;5043970;28;20400;-76
2022/09/07 12:19:03;;;;;;;1.40;1.30;;;;;;;27.35;40.79;101299.97;5083584;27;20403;-79
2022/09/07 12:21:40;;;;;;;0.10;0.10;;;;;;;27.28;40.85;101296.06;5056595;28;20068;-78
2022/09/07 12:41:24;;;;;;;0.10;0.10;;;;;;;28.02;38.73;101276.16;5131129;27;20112;-76
2022/09/07 12:49:28;;;;;;;0.03;0.03;;;;;;;28.35;39.97;101268.75;5104553;27;20409;-78
2022/09/07 12:58:30;;;;;;;0.10;0.10;;;;;;;28.56;38.41;101262.38;5083543;27;20391;-77
2022/09/07 13:01:35;;;;;;;0.00;0.00;;;;;;;28.35;38.60;101257.84;5069106;28;20041;-76
2022/09/07 13:07:16;;;;;;;0.03;0.03;;;;;;;28.52;38.79;101259.06;5087110;27;20381;-77
2022/09/07 13:10:02;;;;;;;0.00;0.00;;;;;;;28.55;38.56;101260.66;5087623;28;20036;-77
2022/09/07 13:15:45;;;;;;;0.38;0.30;;;;;;;28.68;39.30;101247.66;5058016;28;20380;-80
2022/09/07 13:29:54;;;;;;;0.03;0.03;;;;;;;29.01;39.21;101239.25;5100205;27;20124;-76
2022/09/07 13:32:28;;;;;;;0.00;0.00;;;;;;;29.05;36.65;101232.53;5092670;28;20020;-75
2022/09/07 13:37:53;;;;;;;0.22;0.22;;;;;;;29.20;37.45;101222.91;5151136;27;20135;-75
2022/09/07 13:40:24;;;;;;;0.10;0.10;;;;;;;29.10;35.74;101234.78;5149903;27;20430;-75
2022/09/07 13:42:51;;;;;;;0.20;0.20;;;;;;;29.12;37.02;101219.16;5148224;27;20030;-75
2022/09/07 13:48:45;;;;;;;0.10;0.10;;;;;;;28.87;36.87;101226.88;5085795;28;20432;-75
2022/09/07 13:57:04;;;;;;;0.10;0.10;;;;;;;29.35;36.91;101212.44;5101541;27;20404;-76
2022/09/07 13:59:33;;;;;;;0.10;0.10;;;;;;;29.49;36.68;101215.72;5082832;28;20024;-76
2022/09/07 14:02:00;;;;;;;0.43;0.43;;;;;;;29.49;35.54;101218.47;5083640;28;20111;-75
2022/09/07 14:04:33;;;;;;;0.05;0.05;;;;;;;29.54;36.37;101208.81;5079890;28;20028;-76
2022/09/07 14:07:02;;;;;;;0.00;0.00;;;;;;;29.41;36.58;101213.75;5080603;28;20670;-76
2022/09/07 14:09:33;;;;;;;0.10;0.10;;;;;;;29.37;37.01;101207.69;5083221;28;20028;-76
2022/09/07 14:11:59;;;;;;;0.40;0.40;;;;;;;29.29;36.09;101203.97;5086280;28;20562;-75